METAR Data
IDs: Format: Raw Decoded Include TAF

Data at: 1532 UTC 27 Nov 2021

KTOP 271453Z 00000KT 10SM CLR 08/01 A2991 RMK AO2 SLP130 T00780006 51021